Ellenton, FL (34222)

12:23 AM EDT on October 20, 2014 (GMT -0400)
KFLPALME6 | Change Station
CLOSE
Current Station
Personal Weather Station
Location: Palmetto, FL
Elevation: 30 ft
Nearby Weather Stations

Elev 30 ft 27.53 °N, 82.57 °W | Updated 3 minutes ago

Clear
Clear
69.8 °F
Feels Like 69.8 °F
N
1.0
Wind Variable Wind from ENE
Gusts 2.0 mph

Today
High -- | Low -- °F
--% Chance of Precip.
Yesterday
High -- | Low -- °F
Precip. -- in
7:32 AM 6:56 PM
Waning Crescent, 13% visible
Pressure 30.01 in
Visibility 10.0 miles
Clouds Clear
Dew Point 64 °F
Humidity 82%
Rainfall 0.00 in
Snow Depth Not available.
UV 0 out of 12
Pollen 7.10 out of 12
Air Quality Not available.
Flu Activity Local Activity
METAR KSRQ 200253Z 07005KT 10SM CLR 21/18 A3002 RMK AO2 SLP163 T02110178 53013

More Conditions Fewer Conditions

Pressure 30.01 in
Visibility 10.0 miles
Clouds Clear
Dew Point 64 °F
Humidity 82%
Rainfall 0.00 in
Snow Depth Not available.
UV 0 out of 12
Pollen 7.10 out of 12
Air Quality Not available.
Flu Activity Local Activity
METAR KSRQ 200253Z 07005KT 10SM CLR 21/18 A3002 RMK AO2 SLP163 T02110178 53013

More Conditions Fewer Conditions

10-Day Weather Forecast

Almanac

Astronomy

Oct. 20, 2014 Rise Set
Actual Time 7:32 AM EDT 6:56 PM EDT
Civil Twilight 7:09 AM EDT 7:19 PM EDT
Nautical Twilight 6:41 AM EDT 7:47 PM EDT
Astronomical Twilight 6:14 AM EDT 8:14 PM EDT
Moon 4:36 AM EDT 5:04 PM EDT
Length of Visible Light 12h 10m
Length of Day
11h 23m
Waning Crescent, 13% of the Moon is Illuminated
Today
Waning Crescent
Oct 23
New
Oct 30
First Quarter
Nov 6
Full
Nov 14
Last Quarter

Today's Extremes

State Highs State Lows

Community

WunderPhotos

Upload Photos

1,763,294 photos uploaded!

Nearby

Snow Depth

Station Depth Elevation
No new snow has been reported.

Earthquake Activity

City Distance Mag. Time & Date
No recent earthquake activity has been reported nearby.
Minimum magnitude displayed is 2.5.

Coastal Water Temperatures

Place Temperature
St Petersburg, FL 82.9 °F
Old Port Tampa, FL 79.0 °F
McKay Bay Entrance, FL 81.0 °F

Nearby Weather Stations